Latest Weather Observations for Perisher Valley

IDN60801

Issued at 4:32 am EDT Monday 8 February 2016 (issued every 30 minutes, with the page automatically refreshed every 10 minutes)

About weather observations | Map of weather stations | Latest weather observations for NSW | Other Formats
Station Details ID: 071075 Name: PERISHER VALLEY AWS Lat: -36.41 Lon: 148.41 Height: 1738.0 m
Data from the previous 72 hours. | See also: Recent months at Perisher Valley
Date/Time
EDT
Temp
°C
App
Temp
°C
Dew
Point
Rel
Hum
%
Delta-T
°C
Wind Press
QNH
hPa
Press
MSL
hPa
Rain
since 9 am
mm
Dir
 
Spd
km/h
Gust
km/h
Spd
kts
Gust
kts
08/04:30am 6.8 4.2 3.2 78 1.7 WSW 6 11 3 6 - - 0.0
08/04:00am 6.7 4.1 3.1 78 1.7 SW 6 9 3 5 - - 0.0
08/03:30am 7.6 5.1 4.0 78 1.7 SW 6 9 3 5 - - 0.0
08/03:00am 7.2 5.0 3.4 77 1.8 WSW 4 7 2 4 - - 0.0
08/02:30am 7.3 4.7 3.0 74 2.0 WSW 6 9 3 5 - - 0.0
08/02:00am 8.0 5.4 3.1 71 2.3 WSW 6 9 3 5 - - 0.0
08/01:30am 8.9 6.2 2.7 65 2.9 SW 6 9 3 5 - - 0.0
08/01:00am 9.3 6.9 2.4 62 3.2 SW 4 9 2 5 - - 0.0
08/12:30am 11.3 8.8 3.6 59 3.8 SW 6 13 3 7 - - 0.0
08/12:00am 10.0 7.7 2.8 61 3.4 SW 4 9 2 5 - - 0.0
 
Date/Time
EDT
Temp
°C
App
Temp
°C
Dew
Point
Rel
Hum
%
Delta-T
°C
Wind Press
QNH
hPa
Press
MSL
hPa
Rain
since 9 am
mm
Dir
 
Spd
km/h
Gust
km/h
Spd
kts
Gust
kts
07/11:30pm 8.6 5.9 2.4 65 2.9 SW 6 19 3 10 - - 0.0
07/11:00pm 9.3 7.1 3.3 66 2.9 SW 4 11 2 6 - - 0.0
07/10:30pm 11.0 8.6 4.2 63 3.4 WSW 6 11 3 6 - - 0.0
07/10:00pm 11.4 9.4 4.6 63 3.4 SW 4 11 2 6 - - 0.0
07/09:30pm 12.4 10.2 5.1 61 3.7 SW 6 11 3 6 - - 0.0
07/09:00pm 13.6 11.4 6.2 61 3.9 SW 7 15 4 8 - - 0.0
07/08:30pm 13.6 11.2 4.2 53 4.7 SW 6 9 3 5 - - 0.0
07/08:00pm 15.0 12.7 4.7 50 5.3 SW 6 9 3 5 - - 0.0
07/07:30pm 16.1 13.9 5.1 48 5.7 SW 6 17 3 9 - - 0.0
07/07:00pm 17.9 16.2 6.1 46 6.4 SSE 4 11 2 6 - - 0.0
07/06:30pm 18.4 16.4 6.3 45 6.6 SE 6 13 3 7 - - 0.0
07/06:00pm 18.8 16.1 5.6 42 7.1 S 9 20 5 11 - - 0.0
07/05:30pm 19.2 15.8 3.8 36 8.0 SE 11 24 6 13 - - 0.0
07/05:00pm 19.3 16.4 4.6 38 7.8 ESE 9 20 5 11 - - 0.0
07/04:30pm 18.7 14.9 3.7 37 7.8 ESE 13 30 7 16 - - 0.0
07/04:00pm 19.2 16.8 7.0 45 6.7 SE 9 19 5 10 - - 0.0
07/03:30pm 19.6 16.9 7.4 45 6.8 SE 11 30 6 16 - - 0.0
07/03:00pm 19.9 17.9 8.6 48 6.4 ESE 9 20 5 11 - - 0.0
07/02:30pm 20.1 18.2 10.5 54 5.7 ESE 11 24 6 13 - - 0.0
07/02:00pm 19.3 17.3 10.0 55 5.4 ESE 11 20 6 11 - - 0.0
07/01:30pm 18.8 16.7 9.6 55 5.3 E 11 24 6 13 - - 0.0
07/01:00pm 19.4 17.3 9.6 53 5.7 ESE 11 24 6 13 - - 0.0
07/12:30pm 20.0 17.6 10.1 53 5.8 E 13 22 7 12 - - 0.0
07/12:00pm 18.8 16.1 9.0 53 5.6 E 13 24 7 13 - - 0.0
07/11:30am 18.7 16.3 7.2 47 6.3 ESE 9 17 5 9 - - 0.0
07/11:00am 18.6 15.8 6.8 46 6.5 S 11 20 6 11 - - 0.0
07/10:30am 18.4 15.5 2.7 35 7.9 SSW 7 19 4 10 - - 0.0
07/10:00am 17.5 14.9 3.4 39 7.2 SW 6 13 3 7 - - 0.0
07/09:30am 16.8 15.1 6.0 49 5.8 SW 4 15 2 8 - - 0.0
07/09:00am 15.7 14.0 7.7 59 4.4 SW 6 13 3 7 - - 0.0
07/08:30am 14.3 12.9 8.7 69 3.1 SW 6 11 3 6 - - 0.0
07/08:00am 12.3 11.6 8.6 78 2.0 SW 2 7 1 4 - - 0.0
07/07:30am 9.5 9.0 7.8 89 0.9 CALM 0 2 0 1 - - 0.0
07/07:00am 7.5 6.1 5.3 86 1.1 WSW 2 6 1 3 - - 0.0
07/06:30am 6.4 4.5 4.7 89 0.8 WSW 4 7 2 4 - - 0.0
07/06:00am 5.0 3.1 2.9 86 1.0 W 2 6 1 3 - - 0.0
07/05:30am 5.1 3.2 3.0 86 1.0 SW 2 7 1 4 - - 0.0
07/05:00am 5.5 3.7 3.2 85 1.1 SW 2 4 1 2 - - 0.0
07/04:30am 5.6 3.9 4.1 90 0.7 SW 2 6 1 3 - - 0.0
07/04:00am 6.8 5.0 5.6 92 0.6 WSW 4 7 2 4 - - 0.0
07/03:30am 6.2 4.3 4.8 91 0.7 WSW 4 6 2 3 - - 0.0
07/03:00am 5.9 4.0 4.9 93 0.5 SSW 4 6 2 3 - - 0.0
07/02:30am 6.3 4.8 5.1 92 0.6 SW 2 7 1 4 - - 0.0
07/02:00am 6.5 5.3 4.8 89 0.8 CALM 0 0 0 0 - - 0.0
07/01:30am 7.6 5.6 6.1 90 0.8 SW 6 9 3 5 - - 0.0
07/01:00am 8.1 6.2 6.9 92 0.6 SW 6 11 3 6 - - 0.0
07/12:30am 7.8 6.4 7.2 96 0.3 SW 4 7 2 4 - - 0.0
07/12:00am 6.6 5.3 6.0 96 0.3 SW 2 6 1 3 - - 0.0
 
Date/Time
EDT
Temp
°C
App
Temp
°C
Dew
Point
Rel
Hum
%
Delta-T
°C
Wind Press
QNH
hPa
Press
MSL
hPa
Rain
since 9 am
mm
Dir
 
Spd
km/h
Gust
km/h
Spd
kts
Gust
kts
06/11:30pm 7.2 6.4 6.6 96 0.3 CALM 0 2 0 1 - - 0.0
06/11:00pm 7.1 5.5 6.5 96 0.3 SW 4 6 2 3 - - 0.0
06/10:30pm 6.8 5.4 5.7 93 0.5 WSW 2 2 1 1 - - 0.0
06/10:00pm 7.7 6.5 6.5 92 0.6 S 2 4 1 2 - - 0.0
06/09:30pm 8.4 7.3 7.0 91 0.7 WSW 2 6 1 3 - - 0.0
06/09:00pm 9.6 8.8 8.0 90 0.9 WSW 2 6 1 3 - - 0.0
06/08:30pm 11.0 10.4 8.8 86 1.2 WSW 2 4 1 2 - - 0.0
06/08:00pm 12.8 11.9 9.1 78 2.0 E 4 6 2 3 - - 0.0
06/07:30pm 14.0 12.2 9.6 75 2.5 E 9 15 5 8 - - 0.0
06/07:00pm 15.3 13.2 9.7 69 3.2 E 11 17 6 9 - - 0.0
06/06:30pm 15.9 13.3 9.3 65 3.7 E 13 19 7 10 - - 0.0
06/06:00pm 16.7 14.9 9.4 62 4.2 ESE 9 17 5 9 - - 0.0
06/05:30pm 17.0 14.9 9.7 62 4.2 E 11 19 6 10 - - 0.0
06/05:00pm 17.6 15.0 9.5 59 4.6 E 13 20 7 11 - - 0.0
06/04:30pm 18.9 17.4 10.5 58 4.9 E 9 19 5 10 - - 0.0
06/04:00pm 18.1 16.3 11.0 63 4.2 ESE 11 17 6 9 - - 0.0
06/03:30pm 18.4 16.8 11.5 64 4.1 ESE 11 19 6 10 - - 0.0
06/03:00pm 18.5 16.4 9.8 57 5.0 ESE 11 22 6 12 - - 0.0
06/02:30pm 18.7 17.0 9.8 56 5.1 ESE 9 19 5 10 - - 0.0
06/02:00pm 18.8 17.0 9.3 54 5.4 ENE 9 17 5 9 - - 0.0
06/01:30pm 17.9 14.9 5.8 45 6.5 NNE 11 24 6 13 - - 0.0
06/01:00pm 18.1 14.4 4.3 40 7.2 NNE 13 22 7 12 - - 0.0
06/12:30pm 17.7 14.2 5.6 45 6.4 NNE 13 24 7 13 - - 0.0
06/12:00pm 18.3 12.9 2.6 35 7.9 NE 20 32 11 17 - - 0.0
06/11:30am 18.1 12.7 4.3 40 7.2 ENE 22 28 12 15 - - 0.0
06/11:00am 17.5 12.9 5.4 45 6.4 ENE 19 26 10 14 - - 0.0
06/10:30am 16.6 14.5 8.1 57 4.7 NE 9 15 5 8 - - 0.0
06/10:00am 15.5 12.5 6.2 54 4.9 ENE 11 17 6 9 - - 0.0
06/09:30am 13.7 11.6 5.8 59 4.1 ENE 6 11 3 6 - - 0.0
06/09:00am 12.6 9.9 5.8 63 3.5 NE 9 15 5 8 - - 0.0
06/08:30am 10.4 7.9 6.7 78 1.9 NE 9 17 5 9 - - 0.0
06/08:00am 7.4 5.5 6.7 95 0.4 NE 6 9 3 5 - - 0.0
06/07:30am 7.0 4.9 6.6 97 0.2 NE 7 13 4 7 - - 0.0
06/07:00am 7.0 4.9 6.6 97 0.2 NE 7 19 4 10 - - 0.0
06/06:30am 6.9 5.3 6.5 97 0.2 NNE 4 11 2 6 - - 0.0
06/06:00am 7.1 5.0 6.7 97 0.2 NE 7 11 4 6 - - 0.0
06/05:30am 7.1 5.0 6.5 96 0.3 NNE 7 11 4 6 - - 0.0
06/05:00am 7.1 4.6 6.4 95 0.4 NE 9 13 5 7 - - 0.0
06/04:30am 7.2 4.7 6.6 96 0.3 NE 9 13 5 7 - - 0.0
06/04:00am 7.2 4.6 6.3 94 0.5 ENE 9 17 5 9 - - 0.0
06/03:30am 7.2 4.6 6.1 93 0.6 ENE 9 17 5 9 - - 0.0
06/03:00am 7.2 4.6 6.1 93 0.6 ENE 9 15 5 8 - - 0.0
06/02:30am 7.2 4.2 6.0 92 0.6 ENE 11 19 6 10 - - 0.0
06/02:00am 7.2 4.6 6.0 92 0.6 ENE 9 19 5 10 - - 0.0
06/01:30am 7.1 4.8 5.7 91 0.7 ENE 7 11 4 6 - - 0.0
06/01:00am 7.5 4.5 6.0 90 0.8 NE 11 17 6 9 - - 0.0
06/12:30am 7.7 4.7 6.2 90 0.8 ENE 11 20 6 11 - - 0.0
06/12:00am 7.9 5.4 6.7 92 0.6 ENE 9 15 5 8 - - 0.0
 
Date/Time
EDT
Temp
°C
App
Temp
°C
Dew
Point
Rel
Hum
%
Delta-T
°C
Wind Press
QNH
hPa
Press
MSL
hPa
Rain
since 9 am
mm
Dir
 
Spd
km/h
Gust
km/h
Spd
kts
Gust
kts
05/11:30pm 8.1 5.9 6.4 89 0.9 E 7 11 4 6 - - 0.0
05/11:00pm 8.2 6.4 7.0 92 0.6 E 6 11 3 6 - - 0.0
05/10:30pm 8.3 6.3 7.1 92 0.6 E 7 13 4 7 - - 0.0
05/10:00pm 8.6 6.6 7.2 91 0.7 E 7 13 4 7 - - 0.0
05/09:30pm 8.9 6.5 7.2 89 0.9 ENE 9 15 5 8 - - 0.0
05/09:00pm 9.2 7.6 7.8 91 0.7 E 6 9 3 5 - - 0.0
05/08:30pm 9.7 8.1 8.0 89 0.9 E 6 11 3 6 - - 0.0
05/08:00pm 10.0 7.9 8.3 89 0.9 E 9 17 5 9 - - 0.0
05/07:30pm 10.3 7.4 8.1 86 1.2 E 13 19 7 10 - - 0.0
05/07:00pm 11.2 8.7 8.4 83 1.5 E 11 20 6 11 - - 0.0
05/06:30pm 11.6 8.6 7.9 78 2.0 E 13 22 7 12 - - 0.0
05/06:00pm 11.7 8.3 7.6 76 2.2 E 15 22 8 12 - - 0.0
05/05:30pm 12.5 9.0 7.4 71 2.7 E 15 24 8 13 - - 0.0
05/05:00pm 13.4 10.1 8.0 70 2.9 E 15 22 8 12 - - 0.0
05/04:30pm 12.8 9.3 7.3 69 2.9 E 15 26 8 14 - - 0.0
05/04:00pm 13.1 9.6 7.3 68 3.1 E 15 26 8 14 - - 0.0
05/03:30pm 12.3 8.0 7.0 70 2.8 E 19 30 10 16 - - 0.0
05/03:00pm 13.6 9.6 8.4 71 2.9 ENE 19 28 10 15 - - 0.0
05/02:30pm 12.5 9.4 7.2 70 2.8 E 13 24 7 13 - - 0.0
05/02:00pm 12.9 9.6 8.2 73 2.6 E 15 28 8 15 - - 0.0
05/01:30pm 12.9 9.3 8.2 73 2.6 E 17 32 9 17 - - 0.0
05/01:00pm 11.8 8.5 6.3 69 2.9 E 13 26 7 14 - - 0.0
05/12:30pm 12.8 10.3 8.1 73 2.6 E 11 24 6 13 - - 0.0
05/12:00pm 10.3 7.1 5.3 71 2.5 SE 11 20 6 11 - - 0.0
05/11:30am 10.5 7.1 5.7 72 2.4 ENE 13 22 7 12 - - 0.0
05/11:00am 9.3 6.5 5.3 76 2.0 E 9 17 5 9 - - 0.0
05/10:30am 9.8 7.2 6.2 78 1.8 ENE 9 20 5 11 - - 0.0
05/10:00am 8.0 4.2 4.0 76 1.9 ENE 13 19 7 10 - - 0.0
05/09:30am 7.2 4.3 4.7 84 1.2 E 9 19 5 10 - - 0.0
05/09:00am 6.8 4.4 5.1 89 0.8 E 7 15 4 8 - - 0.0
05/08:30am 5.5 2.5 4.3 92 0.6 E 9 15 5 8 - - 0.0
05/08:00am 4.3 1.7 3.4 94 0.4 ESE 6 15 3 8 - - 0.0
05/07:30am 4.1 1.9 3.5 96 0.3 E 4 11 2 6 - - 0.0
05/07:00am 3.6 1.8 3.2 97 0.2 NNE 2 9 1 5 - - 0.0
05/06:30am 2.6 0.2 2.0 96 0.3 SSW 4 9 2 5 - - 0.0
05/06:00am 2.3 0.2 1.4 94 0.4 SW 2 2 1 1 - - 0.0
05/05:30am 2.8 1.2 2.2 96 0.3 CALM 0 4 0 2 - - 0.0
05/05:00am 2.7 0.3 2.0 95 0.3 W 4 6 2 3 - - 0.0

Other Formats:

Comma delimited format used in spreadsheet applications
http://www.bom.gov.au/fwo/IDN60801/IDN60801.94915.axf

JavaScript Object Notation format (JSON) in row-major order
http://www.bom.gov.au/fwo/IDN60801/IDN60801.94915.json